sensor_id;sensor_type;location;lat;lon;timestamp;P1;durP1;ratioP1;P2;durP2;ratioP2
21426;SDS011;10874;49.452;11.050;2023-10-31T00:00:27;5.47;;;4.93;;
21426;SDS011;10874;49.452;11.050;2023-10-31T00:02:54;5.53;;;5.03;;
21426;SDS011;10874;49.452;11.050;2023-10-31T00:05:21;5.20;;;4.77;;
21426;SDS011;10874;49.452;11.050;2023-10-31T00:07:48;4.97;;;4.57;;
21426;SDS011;10874;49.452;11.050;2023-10-31T00:10:15;6.10;;;5.50;;
21426;SDS011;10874;49.452;11.050;2023-10-31T00:12:42;6.33;;;5.17;;
21426;SDS011;10874;49.452;11.050;2023-10-31T00:15:09;8.60;;;7.10;;
21426;SDS011;10874;49.452;11.050;2023-10-31T00:17:35;22.23;;;15.20;;
21426;SDS011;10874;49.452;11.050;2023-10-31T00:20:02;21.17;;;15.33;;
21426;SDS011;10874;49.452;11.050;2023-10-31T00:22:29;13.10;;;9.43;;
21426;SDS011;10874;49.452;11.050;2023-10-31T00:24:56;8.63;;;6.93;;
21426;SDS011;10874;49.452;11.050;2023-10-31T00:27:23;8.33;;;5.60;;
21426;SDS011;10874;49.452;11.050;2023-10-31T00:29:50;4.80;;;4.17;;
21426;SDS011;10874;49.452;11.050;2023-10-31T00:32:16;5.13;;;4.27;;
21426;SDS011;10874;49.452;11.050;2023-10-31T00:34:43;5.10;;;4.27;;
21426;SDS011;10874;49.452;11.050;2023-10-31T00:37:11;4.70;;;4.20;;
21426;SDS011;10874;49.452;11.050;2023-10-31T00:39:37;4.27;;;3.87;;
21426;SDS011;10874;49.452;11.050;2023-10-31T00:42:05;4.30;;;3.90;;
21426;SDS011;10874;49.452;11.050;2023-10-31T00:44:32;3.90;;;3.57;;
21426;SDS011;10874;49.452;11.050;2023-10-31T00:46:59;4.33;;;3.87;;
21426;SDS011;10874;49.452;11.050;2023-10-31T00:49:26;4.70;;;3.70;;
21426;SDS011;10874;49.452;11.050;2023-10-31T00:51:53;4.33;;;3.60;;
21426;SDS011;10874;49.452;11.050;2023-10-31T00:54:20;3.57;;;3.27;;
21426;SDS011;10874;49.452;11.050;2023-10-31T00:56:46;3.60;;;3.30;;
21426;SDS011;10874;49.452;11.050;2023-10-31T00:59:13;3.33;;;3.07;;
21426;SDS011;10874;49.452;11.050;2023-10-31T01:01:40;3.70;;;3.40;;
21426;SDS011;10874;49.452;11.050;2023-10-31T01:04:06;3.87;;;3.10;;
21426;SDS011;10874;49.452;11.050;2023-10-31T01:06:33;4.07;;;3.57;;
21426;SDS011;10874;49.452;11.050;2023-10-31T01:09:00;4.03;;;3.53;;
21426;SDS011;10874;49.452;11.050;2023-10-31T01:11:29;3.67;;;3.33;;
21426;SDS011;10874;49.452;11.050;2023-10-31T01:13:56;3.93;;;2.90;;
21426;SDS011;10874;49.452;11.050;2023-10-31T01:16:22;3.57;;;3.10;;
21426;SDS011;10874;49.452;11.050;2023-10-31T01:18:50;3.43;;;2.90;;
21426;SDS011;10874;49.452;11.050;2023-10-31T01:21:16;3.17;;;2.90;;
21426;SDS011;10874;49.452;11.050;2023-10-31T01:23:46;3.10;;;2.80;;
21426;SDS011;10874;49.452;11.050;2023-10-31T01:26:12;3.23;;;2.90;;
21426;SDS011;10874;49.452;11.050;2023-10-31T01:28:39;2.70;;;2.50;;
21426;SDS011;10874;49.452;11.050;2023-10-31T01:31:06;2.30;;;2.00;;
21426;SDS011;10874;49.452;11.050;2023-10-31T01:33:33;2.10;;;1.90;;
21426;SDS011;10874;49.452;11.050;2023-10-31T01:36:00;1.70;;;1.60;;
21426;SDS011;10874;49.452;11.050;2023-10-31T01:38:26;1.63;;;1.53;;
21426;SDS011;10874;49.452;11.050;2023-10-31T01:40:53;1.40;;;1.30;;
21426;SDS011;10874;49.452;11.050;2023-10-31T01:43:36;1.40;;;1.30;;
21426;SDS011;10874;49.452;11.050;2023-10-31T01:46:03;1.33;;;1.17;;
21426;SDS011;10874;49.452;11.050;2023-10-31T01:48:31;1.47;;;1.37;;
21426;SDS011;10874;49.452;11.050;2023-10-31T01:50:58;1.80;;;1.20;;
21426;SDS011;10874;49.452;11.050;2023-10-31T01:53:26;1.20;;;1.10;;
21426;SDS011;10874;49.452;11.050;2023-10-31T01:55:54;1.53;;;1.10;;
21426;SDS011;10874;49.452;11.050;2023-10-31T01:58:23;1.40;;;1.30;;
21426;SDS011;10874;49.452;11.050;2023-10-31T02:00:52;1.40;;;1.00;;
21426;SDS011;10874;49.452;11.050;2023-10-31T02:03:19;1.73;;;0.93;;
21426;SDS011;10874;49.452;11.050;2023-10-31T02:05:46;0.93;;;0.93;;
21426;SDS011;10874;49.452;11.050;2023-10-31T02:08:12;0.87;;;0.83;;
21426;SDS011;10874;49.452;11.050;2023-10-31T02:10:39;0.80;;;0.80;;
21426;SDS011;10874;49.452;11.050;2023-10-31T02:13:10;0.80;;;0.70;;
21426;SDS011;10874;49.452;11.050;2023-10-31T02:15:37;0.80;;;0.80;;
21426;SDS011;10874;49.452;11.050;2023-10-31T02:18:05;0.77;;;0.77;;
21426;SDS011;10874;49.452;11.050;2023-10-31T02:20:32;3.00;;;0.87;;
21426;SDS011;10874;49.452;11.050;2023-10-31T02:22:58;0.70;;;0.70;;
21426;SDS011;10874;49.452;11.050;2023-10-31T02:25:25;0.70;;;0.70;;
21426;SDS011;10874;49.452;11.050;2023-10-31T02:27:52;0.67;;;0.67;;
21426;SDS011;10874;49.452;11.050;2023-10-31T02:30:19;0.80;;;0.80;;
21426;SDS011;10874;49.452;11.050;2023-10-31T02:32:46;1.47;;;0.90;;
21426;SDS011;10874;49.452;11.050;2023-10-31T02:35:13;1.07;;;0.80;;
21426;SDS011;10874;49.452;11.050;2023-10-31T02:37:40;0.50;;;0.50;;
21426;SDS011;10874;49.452;11.050;2023-10-31T02:40:07;1.53;;;0.73;;
21426;SDS011;10874;49.452;11.050;2023-10-31T02:42:34;2.47;;;0.70;;
21426;SDS011;10874;49.452;11.050;2023-10-31T02:45:01;0.80;;;0.60;;
21426;SDS011;10874;49.452;11.050;2023-10-31T02:47:28;0.70;;;0.70;;
21426;SDS011;10874;49.452;11.050;2023-10-31T02:49:55;0.70;;;0.70;;
21426;SDS011;10874;49.452;11.050;2023-10-31T02:52:22;0.60;;;0.60;;
21426;SDS011;10874;49.452;11.050;2023-10-31T02:54:49;0.97;;;0.70;;
21426;SDS011;10874;49.452;11.050;2023-10-31T02:57:16;1.53;;;0.70;;
21426;SDS011;10874;49.452;11.050;2023-10-31T02:59:43;0.80;;;0.77;;
21426;SDS011;10874;49.452;11.050;2023-10-31T03:02:10;1.17;;;0.90;;
21426;SDS011;10874;49.452;11.050;2023-10-31T03:04:38;0.70;;;0.70;;
21426;SDS011;10874;49.452;11.050;2023-10-31T03:07:04;0.80;;;0.80;;
21426;SDS011;10874;49.452;11.050;2023-10-31T03:09:31;0.77;;;0.77;;
21426;SDS011;10874;49.452;11.050;2023-10-31T03:11:58;0.70;;;0.70;;
21426;SDS011;10874;49.452;11.050;2023-10-31T03:14:25;1.33;;;1.13;;
21426;SDS011;10874;49.452;11.050;2023-10-31T03:16:51;0.70;;;0.70;;
21426;SDS011;10874;49.452;11.050;2023-10-31T03:19:18;1.43;;;0.70;;
21426;SDS011;10874;49.452;11.050;2023-10-31T03:21:45;2.53;;;1.10;;
21426;SDS011;10874;49.452;11.050;2023-10-31T03:24:12;2.37;;;1.10;;
21426;SDS011;10874;49.452;11.050;2023-10-31T03:26:38;1.93;;;1.33;;
21426;SDS011;10874;49.452;11.050;2023-10-31T03:29:05;2.07;;;1.10;;
21426;SDS011;10874;49.452;11.050;2023-10-31T03:31:32;1.17;;;0.93;;
21426;SDS011;10874;49.452;11.050;2023-10-31T03:33:58;1.60;;;1.20;;
21426;SDS011;10874;49.452;11.050;2023-10-31T03:36:25;1.90;;;1.23;;
21426;SDS011;10874;49.452;11.050;2023-10-31T03:38:52;1.33;;;0.87;;
21426;SDS011;10874;49.452;11.050;2023-10-31T03:41:19;1.53;;;1.03;;
21426;SDS011;10874;49.452;11.050;2023-10-31T03:43:46;0.77;;;0.77;;
21426;SDS011;10874;49.452;11.050;2023-10-31T03:46:13;1.30;;;0.80;;
21426;SDS011;10874;49.452;11.050;2023-10-31T03:48:41;0.60;;;0.60;;
21426;SDS011;10874;49.452;11.050;2023-10-31T03:51:08;2.67;;;0.80;;
21426;SDS011;10874;49.452;11.050;2023-10-31T03:53:35;2.00;;;0.90;;
21426;SDS011;10874;49.452;11.050;2023-10-31T03:56:01;0.70;;;0.70;;
21426;SDS011;10874;49.452;11.050;2023-10-31T03:58:28;1.10;;;1.00;;
21426;SDS011;10874;49.452;11.050;2023-10-31T04:00:55;2.40;;;1.10;;
21426;SDS011;10874;49.452;11.050;2023-10-31T04:03:22;1.00;;;0.90;;
21426;SDS011;10874;49.452;11.050;2023-10-31T04:05:49;1.00;;;0.90;;
21426;SDS011;10874;49.452;11.050;2023-10-31T04:08:16;1.57;;;1.10;;
21426;SDS011;10874;49.452;11.050;2023-10-31T04:10:42;2.50;;;1.33;;
21426;SDS011;10874;49.452;11.050;2023-10-31T04:13:09;1.93;;;1.00;;
21426;SDS011;10874;49.452;11.050;2023-10-31T04:15:36;2.47;;;1.20;;
21426;SDS011;10874;49.452;11.050;2023-10-31T04:18:03;3.97;;;0.90;;
21426;SDS011;10874;49.452;11.050;2023-10-31T04:20:30;1.10;;;1.00;;
21426;SDS011;10874;49.452;11.050;2023-10-31T04:22:57;1.27;;;0.93;;
21426;SDS011;10874;49.452;11.050;2023-10-31T04:25:24;0.83;;;0.83;;
21426;SDS011;10874;49.452;11.050;2023-10-31T04:27:51;1.00;;;0.87;;
21426;SDS011;10874;49.452;11.050;2023-10-31T04:30:17;2.00;;;1.30;;
21426;SDS011;10874;49.452;11.050;2023-10-31T04:32:44;1.30;;;1.00;;
21426;SDS011;10874;49.452;11.050;2023-10-31T04:35:12;1.27;;;0.87;;
21426;SDS011;10874;49.452;11.050;2023-10-31T04:37:39;0.80;;;0.80;;
21426;SDS011;10874;49.452;11.050;2023-10-31T04:40:06;1.00;;;1.00;;
21426;SDS011;10874;49.452;11.050;2023-10-31T04:42:33;2.23;;;1.00;;
21426;SDS011;10874;49.452;11.050;2023-10-31T04:45:02;1.23;;;1.13;;
21426;SDS011;10874;49.452;11.050;2023-10-31T04:47:29;3.37;;;1.30;;
21426;SDS011;10874;49.452;11.050;2023-10-31T04:49:56;1.27;;;1.00;;
21426;SDS011;10874;49.452;11.050;2023-10-31T04:52:23;2.47;;;0.90;;
21426;SDS011;10874;49.452;11.050;2023-10-31T04:54:52;1.77;;;1.07;;
21426;SDS011;10874;49.452;11.050;2023-10-31T04:57:19;1.53;;;0.97;;
21426;SDS011;10874;49.452;11.050;2023-10-31T04:59:45;1.90;;;1.10;;
21426;SDS011;10874;49.452;11.050;2023-10-31T05:02:12;1.10;;;1.00;;
21426;SDS011;10874;49.452;11.050;2023-10-31T05:04:39;2.37;;;1.00;;
21426;SDS011;10874;49.452;11.050;2023-10-31T05:07:07;1.00;;;0.80;;
21426;SDS011;10874;49.452;11.050;2023-10-31T05:09:35;2.10;;;0.90;;
21426;SDS011;10874;49.452;11.050;2023-10-31T05:12:02;0.80;;;0.80;;
21426;SDS011;10874;49.452;11.050;2023-10-31T05:14:29;1.00;;;0.70;;
21426;SDS011;10874;49.452;11.050;2023-10-31T05:16:56;1.10;;;0.90;;
21426;SDS011;10874;49.452;11.050;2023-10-31T05:19:23;1.63;;;0.87;;
21426;SDS011;10874;49.452;11.050;2023-10-31T05:21:49;1.07;;;0.87;;
21426;SDS011;10874;49.452;11.050;2023-10-31T05:24:16;2.73;;;1.03;;
21426;SDS011;10874;49.452;11.050;2023-10-31T05:26:43;1.00;;;0.77;;
21426;SDS011;10874;49.452;11.050;2023-10-31T05:29:10;1.07;;;0.80;;
21426;SDS011;10874;49.452;11.050;2023-10-31T05:31:37;1.57;;;1.00;;
21426;SDS011;10874;49.452;11.050;2023-10-31T05:34:04;0.60;;;0.60;;
21426;SDS011;10874;49.452;11.050;2023-10-31T05:36:31;0.90;;;0.70;;
21426;SDS011;10874;49.452;11.050;2023-10-31T05:38:58;0.90;;;0.77;;
21426;SDS011;10874;49.452;11.050;2023-10-31T05:41:24;0.90;;;0.73;;
21426;SDS011;10874;49.452;11.050;2023-10-31T05:43:51;1.20;;;0.87;;
21426;SDS011;10874;49.452;11.050;2023-10-31T05:46:18;0.97;;;0.77;;
21426;SDS011;10874;49.452;11.050;2023-10-31T05:48:45;2.40;;;0.93;;
21426;SDS011;10874;49.452;11.050;2023-10-31T05:51:16;2.23;;;0.73;;
21426;SDS011;10874;49.452;11.050;2023-10-31T05:53:44;1.13;;;0.83;;
21426;SDS011;10874;49.452;11.050;2023-10-31T05:56:11;2.30;;;0.70;;
21426;SDS011;10874;49.452;11.050;2023-10-31T05:58:39;0.60;;;0.60;;
21426;SDS011;10874;49.452;11.050;2023-10-31T06:01:06;1.13;;;0.90;;
21426;SDS011;10874;49.452;11.050;2023-10-31T06:03:34;1.77;;;0.90;;
21426;SDS011;10874;49.452;11.050;2023-10-31T06:06:01;1.40;;;0.60;;
21426;SDS011;10874;49.452;11.050;2023-10-31T06:08:28;2.53;;;0.80;;
21426;SDS011;10874;49.452;11.050;2023-10-31T06:10:55;1.13;;;0.80;;
21426;SDS011;10874;49.452;11.050;2023-10-31T06:13:25;2.77;;;1.10;;
21426;SDS011;10874;49.452;11.050;2023-10-31T06:15:54;1.43;;;1.13;;
21426;SDS011;10874;49.452;11.050;2023-10-31T06:18:23;2.80;;;1.00;;
21426;SDS011;10874;49.452;11.050;2023-10-31T06:20:50;1.07;;;0.97;;
21426;SDS011;10874;49.452;11.050;2023-10-31T06:23:17;4.33;;;1.17;;
21426;SDS011;10874;49.452;11.050;2023-10-31T06:25:43;2.73;;;1.33;;
21426;SDS011;10874;49.452;11.050;2023-10-31T06:28:10;2.50;;;1.10;;
21426;SDS011;10874;49.452;11.050;2023-10-31T06:30:37;2.17;;;1.23;;
21426;SDS011;10874;49.452;11.050;2023-10-31T06:33:04;1.20;;;0.87;;
21426;SDS011;10874;49.452;11.050;2023-10-31T06:35:30;3.33;;;1.00;;
21426;SDS011;10874;49.452;11.050;2023-10-31T06:37:57;1.30;;;0.80;;
21426;SDS011;10874;49.452;11.050;2023-10-31T06:40:24;1.00;;;0.80;;
21426;SDS011;10874;49.452;11.050;2023-10-31T06:42:51;1.47;;;0.80;;
21426;SDS011;10874;49.452;11.050;2023-10-31T06:45:18;4.57;;;0.97;;
21426;SDS011;10874;49.452;11.050;2023-10-31T06:47:45;7.83;;;1.47;;
21426;SDS011;10874;49.452;11.050;2023-10-31T06:50:12;2.20;;;1.00;;
21426;SDS011;10874;49.452;11.050;2023-10-31T06:52:39;2.83;;;0.90;;
21426;SDS011;10874;49.452;11.050;2023-10-31T06:55:06;3.23;;;1.03;;
21426;SDS011;10874;49.452;11.050;2023-10-31T06:57:33;4.47;;;1.37;;
21426;SDS011;10874;49.452;11.050;2023-10-31T06:59:59;3.73;;;1.23;;
21426;SDS011;10874;49.452;11.050;2023-10-31T07:02:26;5.83;;;1.60;;
21426;SDS011;10874;49.452;11.050;2023-10-31T07:04:53;4.53;;;1.27;;
21426;SDS011;10874;49.452;11.050;2023-10-31T07:07:20;3.20;;;1.00;;
21426;SDS011;10874;49.452;11.050;2023-10-31T07:09:47;2.57;;;1.30;;
21426;SDS011;10874;49.452;11.050;2023-10-31T07:12:14;1.53;;;0.80;;
21426;SDS011;10874;49.452;11.050;2023-10-31T07:14:41;0.70;;;0.60;;
21426;SDS011;10874;49.452;11.050;2023-10-31T07:17:08;2.17;;;0.63;;
21426;SDS011;10874;49.452;11.050;2023-10-31T07:19:34;2.00;;;0.60;;
21426;SDS011;10874;49.452;11.050;2023-10-31T07:22:01;1.07;;;0.80;;
21426;SDS011;10874;49.452;11.050;2023-10-31T07:24:28;1.20;;;0.70;;
21426;SDS011;10874;49.452;11.050;2023-10-31T07:26:55;1.90;;;0.80;;
21426;SDS011;10874;49.452;11.050;2023-10-31T07:29:22;1.80;;;0.60;;
21426;SDS011;10874;49.452;11.050;2023-10-31T07:31:50;1.53;;;0.70;;
21426;SDS011;10874;49.452;11.050;2023-10-31T07:34:17;0.70;;;0.70;;
21426;SDS011;10874;49.452;11.050;2023-10-31T07:36:44;1.00;;;0.80;;
21426;SDS011;10874;49.452;11.050;2023-10-31T07:39:11;1.20;;;0.90;;
21426;SDS011;10874;49.452;11.050;2023-10-31T07:41:39;1.43;;;0.70;;
21426;SDS011;10874;49.452;11.050;2023-10-31T07:44:09;1.30;;;0.80;;
21426;SDS011;10874;49.452;11.050;2023-10-31T07:46:36;1.80;;;0.73;;
21426;SDS011;10874;49.452;11.050;2023-10-31T07:49:03;1.43;;;0.80;;
21426;SDS011;10874;49.452;11.050;2023-10-31T07:51:29;1.73;;;0.80;;
21426;SDS011;10874;49.452;11.050;2023-10-31T07:53:56;2.53;;;0.80;;
21426;SDS011;10874;49.452;11.050;2023-10-31T07:56:24;1.10;;;0.87;;
21426;SDS011;10874;49.452;11.050;2023-10-31T07:58:52;3.13;;;0.83;;
21426;SDS011;10874;49.452;11.050;2023-10-31T08:01:18;1.03;;;0.70;;
21426;SDS011;10874;49.452;11.050;2023-10-31T08:03:46;2.07;;;0.93;;
21426;SDS011;10874;49.452;11.050;2023-10-31T08:06:13;2.60;;;0.80;;
21426;SDS011;10874;49.452;11.050;2023-10-31T08:08:40;1.83;;;1.00;;
21426;SDS011;10874;49.452;11.050;2023-10-31T08:11:07;2.23;;;0.73;;
21426;SDS011;10874;49.452;11.050;2023-10-31T08:13:35;1.57;;;1.00;;
21426;SDS011;10874;49.452;11.050;2023-10-31T08:16:02;2.07;;;1.10;;
21426;SDS011;10874;49.452;11.050;2023-10-31T08:18:29;1.63;;;0.90;;
21426;SDS011;10874;49.452;11.050;2023-10-31T08:20:56;2.23;;;1.07;;
21426;SDS011;10874;49.452;11.050;2023-10-31T08:23:23;1.97;;;0.87;;
21426;SDS011;10874;49.452;11.050;2023-10-31T08:25:49;1.77;;;0.90;;
21426;SDS011;10874;49.452;11.050;2023-10-31T08:28:17;1.60;;;0.70;;
21426;SDS011;10874;49.452;11.050;2023-10-31T08:30:43;1.00;;;0.80;;
21426;SDS011;10874;49.452;11.050;2023-10-31T08:33:11;2.27;;;0.80;;
21426;SDS011;10874;49.452;11.050;2023-10-31T08:35:37;2.17;;;1.00;;
21426;SDS011;10874;49.452;11.050;2023-10-31T08:38:04;1.47;;;0.80;;
21426;SDS011;10874;49.452;11.050;2023-10-31T08:40:31;1.73;;;0.97;;
21426;SDS011;10874;49.452;11.050;2023-10-31T08:42:58;1.73;;;1.00;;
21426;SDS011;10874;49.452;11.050;2023-10-31T08:45:24;1.40;;;0.80;;
21426;SDS011;10874;49.452;11.050;2023-10-31T08:47:51;1.30;;;1.07;;
21426;SDS011;10874;49.452;11.050;2023-10-31T08:50:18;2.53;;;0.80;;
21426;SDS011;10874;49.452;11.050;2023-10-31T08:52:45;2.00;;;0.90;;
21426;SDS011;10874;49.452;11.050;2023-10-31T08:55:12;2.30;;;0.93;;
21426;SDS011;10874;49.452;11.050;2023-10-31T08:57:39;2.13;;;0.90;;
21426;SDS011;10874;49.452;11.050;2023-10-31T09:00:06;1.20;;;0.93;;
21426;SDS011;10874;49.452;11.050;2023-10-31T09:02:33;2.97;;;0.97;;
21426;SDS011;10874;49.452;11.050;2023-10-31T09:05:00;1.17;;;1.00;;
21426;SDS011;10874;49.452;11.050;2023-10-31T09:07:27;2.40;;;0.90;;
21426;SDS011;10874;49.452;11.050;2023-10-31T09:09:54;4.83;;;1.30;;
21426;SDS011;10874;49.452;11.050;2023-10-31T09:12:20;1.20;;;1.10;;
21426;SDS011;10874;49.452;11.050;2023-10-31T09:14:47;0.90;;;0.90;;
21426;SDS011;10874;49.452;11.050;2023-10-31T09:17:14;1.13;;;0.80;;
21426;SDS011;10874;49.452;11.050;2023-10-31T09:19:41;2.37;;;0.93;;
21426;SDS011;10874;49.452;11.050;2023-10-31T09:22:08;2.77;;;0.80;;
21426;SDS011;10874;49.452;11.050;2023-10-31T09:24:34;5.83;;;1.37;;
21426;SDS011;10874;49.452;11.050;2023-10-31T09:27:01;2.73;;;1.10;;
21426;SDS011;10874;49.452;11.050;2023-10-31T09:29:28;2.70;;;1.00;;
21426;SDS011;10874;49.452;11.050;2023-10-31T09:31:56;1.07;;;0.90;;
21426;SDS011;10874;49.452;11.050;2023-10-31T09:34:22;1.77;;;0.80;;
21426;SDS011;10874;49.452;11.050;2023-10-31T09:36:49;1.67;;;0.80;;
21426;SDS011;10874;49.452;11.050;2023-10-31T09:39:16;4.90;;;0.90;;
21426;SDS011;10874;49.452;11.050;2023-10-31T09:41:43;2.77;;;0.90;;
21426;SDS011;10874;49.452;11.050;2023-10-31T09:44:09;1.80;;;0.80;;
21426;SDS011;10874;49.452;11.050;2023-10-31T09:46:36;1.33;;;0.90;;
21426;SDS011;10874;49.452;11.050;2023-10-31T09:49:04;1.27;;;0.90;;
21426;SDS011;10874;49.452;11.050;2023-10-31T09:51:31;0.90;;;0.70;;
21426;SDS011;10874;49.452;11.050;2023-10-31T09:53:58;1.30;;;1.10;;
21426;SDS011;10874;49.452;11.050;2023-10-31T09:56:25;2.47;;;0.77;;
21426;SDS011;10874;49.452;11.050;2023-10-31T09:58:53;1.43;;;0.87;;
21426;SDS011;10874;49.452;11.050;2023-10-31T10:01:20;1.97;;;0.97;;
21426;SDS011;10874;49.452;11.050;2023-10-31T10:03:47;0.63;;;0.60;;
21426;SDS011;10874;49.452;11.050;2023-10-31T10:06:14;2.30;;;0.97;;
21426;SDS011;10874;49.452;11.050;2023-10-31T10:08:42;0.70;;;0.70;;
21426;SDS011;10874;49.452;11.050;2023-10-31T10:11:08;1.90;;;1.00;;
21426;SDS011;10874;49.452;11.050;2023-10-31T10:13:35;2.90;;;1.80;;
21426;SDS011;10874;49.452;11.050;2023-10-31T10:16:02;4.03;;;2.00;;
21426;SDS011;10874;49.452;11.050;2023-10-31T10:18:29;1.87;;;1.13;;
21426;SDS011;10874;49.452;11.050;2023-10-31T10:23:23;2.87;;;1.00;;
21426;SDS011;10874;49.452;11.050;2023-10-31T10:25:51;0.80;;;0.80;;
21426;SDS011;10874;49.452;11.050;2023-10-31T10:28:18;1.33;;;1.10;;
21426;SDS011;10874;49.452;11.050;2023-10-31T10:30:48;1.77;;;0.97;;
21426;SDS011;10874;49.452;11.050;2023-10-31T10:33:15;3.50;;;1.07;;
21426;SDS011;10874;49.452;11.050;2023-10-31T10:35:42;0.83;;;0.80;;
21426;SDS011;10874;49.452;11.050;2023-10-31T10:38:13;1.07;;;0.93;;
21426;SDS011;10874;49.452;11.050;2023-10-31T10:40:40;2.43;;;1.00;;
21426;SDS011;10874;49.452;11.050;2023-10-31T10:43:11;2.50;;;0.97;;
21426;SDS011;10874;49.452;11.050;2023-10-31T10:45:42;2.47;;;1.10;;
21426;SDS011;10874;49.452;11.050;2023-10-31T10:48:11;1.50;;;1.10;;
21426;SDS011;10874;49.452;11.050;2023-10-31T10:50:38;0.80;;;0.80;;
21426;SDS011;10874;49.452;11.050;2023-10-31T10:53:24;1.10;;;1.00;;
21426;SDS011;10874;49.452;11.050;2023-10-31T10:56:03;1.20;;;1.10;;
21426;SDS011;10874;49.452;11.050;2023-10-31T11:01:24;1.87;;;1.33;;
21426;SDS011;10874;49.452;11.050;2023-10-31T11:03:52;3.27;;;1.20;;
21426;SDS011;10874;49.452;11.050;2023-10-31T11:06:19;4.27;;;1.33;;
21426;SDS011;10874;49.452;11.050;2023-10-31T11:08:46;3.47;;;1.57;;
21426;SDS011;10874;49.452;11.050;2023-10-31T11:11:13;2.40;;;1.30;;
21426;SDS011;10874;49.452;11.050;2023-10-31T11:13:43;3.77;;;1.20;;
21426;SDS011;10874;49.452;11.050;2023-10-31T11:16:15;2.70;;;1.10;;
21426;SDS011;10874;49.452;11.050;2023-10-31T11:18:43;2.80;;;1.20;;
21426;SDS011;10874;49.452;11.050;2023-10-31T11:21:11;1.63;;;1.30;;
21426;SDS011;10874;49.452;11.050;2023-10-31T11:23:37;2.10;;;1.30;;
21426;SDS011;10874;49.452;11.050;2023-10-31T11:26:09;4.70;;;1.30;;
21426;SDS011;10874;49.452;11.050;2023-10-31T11:28:36;2.03;;;1.10;;
21426;SDS011;10874;49.452;11.050;2023-10-31T11:31:03;3.53;;;1.30;;
21426;SDS011;10874;49.452;11.050;2023-10-31T11:33:30;1.77;;;1.33;;
21426;SDS011;10874;49.452;11.050;2023-10-31T11:36:01;2.33;;;1.20;;
21426;SDS011;10874;49.452;11.050;2023-10-31T11:38:30;1.20;;;1.10;;
21426;SDS011;10874;49.452;11.050;2023-10-31T11:41:02;1.90;;;1.00;;
21426;SDS011;10874;49.452;11.050;2023-10-31T11:43:36;1.13;;;0.83;;
21426;SDS011;10874;49.452;11.050;2023-10-31T11:46:23;0.87;;;0.87;;
21426;SDS011;10874;49.452;11.050;2023-10-31T11:48:52;0.93;;;0.90;;
21426;SDS011;10874;49.452;11.050;2023-10-31T11:51:19;0.97;;;0.87;;
21426;SDS011;10874;49.452;11.050;2023-10-31T11:53:47;1.17;;;1.03;;
21426;SDS011;10874;49.452;11.050;2023-10-31T11:56:19;2.10;;;0.90;;
21426;SDS011;10874;49.452;11.050;2023-10-31T11:59:00;1.60;;;1.00;;
21426;SDS011;10874;49.452;11.050;2023-10-31T12:01:27;1.53;;;1.07;;
21426;SDS011;10874;49.452;11.050;2023-10-31T12:03:55;1.60;;;0.77;;
21426;SDS011;10874;49.452;11.050;2023-10-31T12:06:22;2.53;;;1.33;;
21426;SDS011;10874;49.452;11.050;2023-10-31T12:08:49;1.33;;;1.17;;
21426;SDS011;10874;49.452;11.050;2023-10-31T12:11:19;1.57;;;1.03;;
21426;SDS011;10874;49.452;11.050;2023-10-31T12:13:54;2.73;;;1.30;;
21426;SDS011;10874;49.452;11.050;2023-10-31T12:16:28;1.93;;;0.90;;
21426;SDS011;10874;49.452;11.050;2023-10-31T12:19:00;3.93;;;1.30;;
21426;SDS011;10874;49.452;11.050;2023-10-31T12:21:37;3.97;;;1.67;;
21426;SDS011;10874;49.452;11.050;2023-10-31T12:24:07;5.97;;;1.40;;
21426;SDS011;10874;49.452;11.050;2023-10-31T12:26:35;2.03;;;1.43;;
21426;SDS011;10874;49.452;11.050;2023-10-31T12:31:35;2.77;;;1.40;;
21426;SDS011;10874;49.452;11.050;2023-10-31T12:34:05;4.03;;;1.30;;
21426;SDS011;10874;49.452;11.050;2023-10-31T12:36:33;3.53;;;1.67;;
21426;SDS011;10874;49.452;11.050;2023-10-31T12:39:01;3.83;;;2.50;;
21426;SDS011;10874;49.452;11.050;2023-10-31T12:41:28;2.60;;;1.80;;
21426;SDS011;10874;49.452;11.050;2023-10-31T12:43:55;5.20;;;3.33;;
21426;SDS011;10874;49.452;11.050;2023-10-31T12:46:28;4.23;;;3.83;;
21426;SDS011;10874;49.452;11.050;2023-10-31T12:48:58;3.80;;;2.40;;
21426;SDS011;10874;49.452;11.050;2023-10-31T12:51:25;3.47;;;1.67;;
21426;SDS011;10874;49.452;11.050;2023-10-31T12:53:52;3.83;;;1.73;;
21426;SDS011;10874;49.452;11.050;2023-10-31T12:56:41;3.53;;;1.50;;
21426;SDS011;10874;49.452;11.050;2023-10-31T12:59:09;4.47;;;1.40;;
21426;SDS011;10874;49.452;11.050;2023-10-31T13:01:36;3.07;;;1.33;;
21426;SDS011;10874;49.452;11.050;2023-10-31T13:04:03;2.73;;;1.50;;
21426;SDS011;10874;49.452;11.050;2023-10-31T13:06:30;4.87;;;1.60;;
21426;SDS011;10874;49.452;11.050;2023-10-31T13:08:57;4.07;;;1.57;;
21426;SDS011;10874;49.452;11.050;2023-10-31T13:11:28;2.23;;;1.43;;
21426;SDS011;10874;49.452;11.050;2023-10-31T13:13:55;4.53;;;1.67;;
21426;SDS011;10874;49.452;11.050;2023-10-31T13:16:22;3.07;;;1.43;;
21426;SDS011;10874;49.452;11.050;2023-10-31T13:18:49;3.40;;;1.43;;
21426;SDS011;10874;49.452;11.050;2023-10-31T13:21:16;6.97;;;4.97;;
21426;SDS011;10874;49.452;11.050;2023-10-31T13:23:44;9.57;;;7.20;;
21426;SDS011;10874;49.452;11.050;2023-10-31T13:26:12;1.83;;;1.50;;
21426;SDS011;10874;49.452;11.050;2023-10-31T13:28:39;2.20;;;1.33;;
21426;SDS011;10874;49.452;11.050;2023-10-31T13:31:07;3.50;;;0.93;;
21426;SDS011;10874;49.452;11.050;2023-10-31T13:33:34;2.70;;;1.07;;
21426;SDS011;10874;49.452;11.050;2023-10-31T13:36:01;1.47;;;1.00;;
21426;SDS011;10874;49.452;11.050;2023-10-31T13:38:30;1.60;;;1.10;;
21426;SDS011;10874;49.452;11.050;2023-10-31T13:40:57;3.00;;;1.23;;
21426;SDS011;10874;49.452;11.050;2023-10-31T13:43:24;3.70;;;1.03;;
21426;SDS011;10874;49.452;11.050;2023-10-31T13:45:51;2.33;;;1.10;;
21426;SDS011;10874;49.452;11.050;2023-10-31T13:48:17;2.80;;;1.20;;
21426;SDS011;10874;49.452;11.050;2023-10-31T13:50:45;2.77;;;1.17;;
21426;SDS011;10874;49.452;11.050;2023-10-31T13:53:12;2.27;;;1.27;;
21426;SDS011;10874;49.452;11.050;2023-10-31T13:55:39;4.57;;;1.30;;
21426;SDS011;10874;49.452;11.050;2023-10-31T13:58:07;1.77;;;1.00;;
21426;SDS011;10874;49.452;11.050;2023-10-31T14:00:34;3.57;;;1.03;;
21426;SDS011;10874;49.452;11.050;2023-10-31T14:03:01;1.70;;;1.13;;
21426;SDS011;10874;49.452;11.050;2023-10-31T14:05:28;3.37;;;1.23;;
21426;SDS011;10874;49.452;11.050;2023-10-31T14:07:58;4.23;;;1.30;;
21426;SDS011;10874;49.452;11.050;2023-10-31T14:10:26;4.50;;;1.33;;
21426;SDS011;10874;49.452;11.050;2023-10-31T14:12:53;4.00;;;1.20;;
21426;SDS011;10874;49.452;11.050;2023-10-31T14:15:21;2.33;;;1.23;;
21426;SDS011;10874;49.452;11.050;2023-10-31T14:17:50;3.57;;;1.30;;
21426;SDS011;10874;49.452;11.050;2023-10-31T14:20:17;3.87;;;1.20;;
21426;SDS011;10874;49.452;11.050;2023-10-31T14:22:47;2.60;;;1.10;;
21426;SDS011;10874;49.452;11.050;2023-10-31T14:25:15;1.90;;;1.23;;
21426;SDS011;10874;49.452;11.050;2023-10-31T14:27:42;4.03;;;1.23;;
21426;SDS011;10874;49.452;11.050;2023-10-31T14:30:10;3.83;;;1.27;;
21426;SDS011;10874;49.452;11.050;2023-10-31T14:32:37;2.17;;;1.47;;
21426;SDS011;10874;49.452;11.050;2023-10-31T14:35:05;2.67;;;1.23;;
21426;SDS011;10874;49.452;11.050;2023-10-31T14:37:33;3.50;;;0.80;;
21426;SDS011;10874;49.452;11.050;2023-10-31T14:40:00;2.17;;;1.17;;
21426;SDS011;10874;49.452;11.050;2023-10-31T14:42:30;3.13;;;1.10;;